Arkansas City, Arkansas
Current Conditions -  °F | °C
As of 3:53 AM on Wednesday 26 Nov 2014 (Local Time) from KGLH Reporting Station
Clear Clear  
Wind Chill: 34°   Ceiling: Unl
Heat Index: 34°   Visibility: 10mi
Dew Point: 30°   Wind: 3mph
Humidity: 85%   Direction: 170°S
Pressure: 30.16"   Gusts: NA
Location:  33.61°N, 91.21°W
Report Text: KGLH 260953Z AUTO 17003KT 10SM CLR 01/M01 A3016 RMK AO2 SLP221 T00111011
Loading
Personal Weather Stations






























Interactive Weather Map New forecast layout! Learn more

10-Day Weather Forecast

Advertisements
Track Severe Weather on mobile